Time;durP1;ratioP1;P1;durP2;ratioP2;P2;SDS_P1;SDS_P2;PMS_P1;PMS_P2;Temp;Humidity;BMP_temperature;BMP_pressure;BME280_temperature;BME280_humidity;BME280_pressure;Samples;Min_cycle;Max_cycle;Signal;HPM_P1;HPM_P2
2023/06/01 00:01:16;;;;;;;9.02;3.25;;;13.80;68.30;;;;;;4738980;30;20160;-88
2023/06/01 00:03:44;;;;;;;10.82;3.83;;;13.80;68.10;;;;;;4753677;30;20409;-88
2023/06/01 00:06:11;;;;;;;10.68;4.10;;;13.60;68.30;;;;;;4738578;30;20508;-88
2023/06/01 00:08:38;;;;;;;10.83;3.77;;;13.50;68.70;;;;;;4738890;30;20066;-89
2023/06/01 00:11:05;;;;;;;8.70;3.33;;;13.50;68.90;;;;;;4738710;30;20059;-89
2023/06/01 00:13:32;;;;;;;9.73;3.65;;;13.50;68.90;;;;;;4750422;30;20079;-89
2023/06/01 00:16:00;;;;;;;8.82;3.20;;;13.50;69.00;;;;;;4735864;30;20420;-89
2023/06/01 00:18:27;;;;;;;7.55;3.40;;;13.50;68.80;;;;;;4735724;30;20055;-88
2023/06/01 00:20:54;;;;;;;10.00;3.90;;;13.50;69.00;;;;;;4741576;30;20114;-88
2023/06/01 00:23:21;;;;;;;9.30;3.53;;;13.40;69.10;;;;;;4739058;30;20200;-88
2023/06/01 00:25:48;;;;;;;8.90;3.50;;;13.30;69.20;;;;;;4753350;30;20151;-87
2023/06/01 00:28:15;;;;;;;11.50;3.92;;;13.20;69.60;;;;;;4753417;30;20507;-89
2023/06/01 00:30:42;;;;;;;9.15;3.60;;;13.20;69.50;;;;;;4735487;30;20083;-88
2023/06/01 00:33:10;;;;;;;9.40;3.70;;;13.10;69.50;;;;;;4735693;30;20131;-88
2023/06/01 00:35:37;;;;;;;8.95;3.85;;;13.20;69.70;;;;;;4735348;30;20060;-88
2023/06/01 00:38:06;;;;;;;10.68;4.28;;;13.20;69.60;;;;;;4735218;30;20052;-88
2023/06/01 00:40:34;;;;;;;8.90;3.78;;;13.30;69.40;;;;;;4735590;30;20063;-88
2023/06/01 00:43:01;;;;;;;10.07;4.00;;;13.30;69.40;;;;;;4749869;30;20503;-88
2023/06/01 00:45:28;;;;;;;8.27;3.13;;;13.20;69.20;;;;;;4738446;30;20055;-89
2023/06/01 00:47:56;;;;;;;8.85;3.60;;;13.30;69.20;;;;;;4723960;30;20091;-89
2023/06/01 00:50:23;;;;;;;7.95;3.13;;;13.30;69.00;;;;;;4738254;30;20048;-89
2023/06/01 00:52:51;;;;;;;9.63;3.70;;;13.30;68.90;;;;;;4738542;30;20075;-89
2023/06/01 00:55:20;;;;;;;8.48;3.78;;;13.40;68.90;;;;;;4738415;30;20048;-89
2023/06/01 00:57:50;;;;;;;8.23;3.50;;;13.40;68.80;;;;;;4738322;30;20056;-88
2023/06/01 01:00:18;;;;;;;9.05;3.28;;;13.30;68.80;;;;;;4738413;30;20056;-89
2023/06/01 01:02:48;;;;;;;10.77;3.80;;;13.30;68.80;;;;;;4738282;30;20056;-89
2023/06/01 01:05:17;;;;;;;10.52;3.97;;;13.30;68.60;;;;;;4737926;30;20052;-88
2023/06/01 01:08:16;;;;;;;10.05;4.20;;;13.30;68.80;;;;;;4738286;30;20056;-89
2023/06/01 01:11:03;;;;;;;9.17;3.80;;;13.20;68.80;;;;;;4738167;30;20083;-89
2023/06/01 01:14:03;;;;;;;8.95;3.28;;;13.10;68.90;;;;;;4738230;30;20106;-89
2023/06/01 01:17:13;;;;;;;7.75;3.42;;;13.10;69.00;;;;;;4718865;30;20056;-89
2023/06/01 01:19:59;;;;;;;8.80;3.72;;;13.10;69.30;;;;;;4737941;30;20064;-89
2023/06/01 01:22:30;;;;;;;9.68;3.85;;;13.00;69.30;;;;;;4723557;30;20063;-88
2023/06/01 01:25:20;;;;;;;9.67;3.57;;;12.90;69.50;;;;;;4737883;30;20106;-88
2023/06/01 01:28:16;;;;;;;9.27;3.45;;;12.90;69.60;;;;;;4738090;30;20106;-89
2023/06/01 01:30:46;;;;;;;9.93;3.47;;;12.90;69.80;;;;;;4723134;30;20044;-90
2023/06/01 01:33:14;;;;;;;10.32;3.42;;;12.90;69.80;;;;;;4737746;30;20048;-89
2023/06/01 01:35:42;;;;;;;8.63;3.63;;;12.90;69.70;;;;;;4737834;30;20478;-89
2023/06/01 01:38:09;;;;;;;8.47;3.20;;;12.90;69.60;;;;;;4723152;30;20431;-89
2023/06/01 01:40:36;;;;;;;9.88;3.42;;;12.90;69.60;;;;;;4737920;30;20590;-89
2023/06/01 01:43:04;;;;;;;9.82;3.30;;;12.90;69.40;;;;;;4737709;30;20048;-89
2023/06/01 01:45:31;;;;;;;8.65;3.88;;;12.80;69.80;;;;;;4737750;30;20060;-87
2023/06/01 01:48:42;;;;;;;11.13;3.30;;;12.70;70.00;;;;;;4737700;30;20052;-88
2023/06/01 01:51:19;;;;;;;8.83;3.27;;;12.60;70.40;;;;;;4706870;30;20079;-88
2023/06/01 01:53:51;;;;;;;8.05;3.10;;;12.60;70.30;;;;;;4737875;30;20094;-88
2023/06/01 01:56:19;;;;;;;9.65;4.28;;;12.60;70.20;;;;;;4737853;30;20048;-89
2023/06/01 01:58:47;;;;;;;7.88;3.42;;;12.50;70.50;;;;;;4737850;30;20052;-88
2023/06/01 02:01:17;;;;;;;8.82;3.20;;;12.40;70.70;;;;;;4737749;30;20054;-88
2023/06/01 02:03:44;;;;;;;10.23;3.50;;;12.50;70.60;;;;;;4737786;30;20118;-89
2023/06/01 02:06:12;;;;;;;10.40;3.15;;;12.50;70.60;;;;;;4737964;30;20052;-89
2023/06/01 02:08:40;;;;;;;9.73;4.00;;;12.40;70.90;;;;;;4737577;30;20083;-88
2023/06/01 02:11:07;;;;;;;10.15;3.33;;;12.40;70.80;;;;;;4732018;30;20504;-87
2023/06/01 02:13:34;;;;;;;11.30;3.58;;;12.30;71.10;;;;;;4737598;30;20060;-88
2023/06/01 02:16:01;;;;;;;7.63;3.23;;;12.30;71.00;;;;;;4749143;30;20060;-88
2023/06/01 02:18:29;;;;;;;11.23;3.40;;;12.20;71.00;;;;;;4755225;30;20110;-88
2023/06/01 02:20:56;;;;;;;11.30;4.00;;;12.20;71.30;;;;;;4740793;30;20051;-88
2023/06/01 02:23:23;;;;;;;12.93;3.97;;;12.20;71.30;;;;;;4741125;30;20142;-88
2023/06/01 02:25:51;;;;;;;9.63;3.90;;;12.10;71.40;;;;;;4741125;30;20080;-89
2023/06/01 02:28:18;;;;;;;11.23;4.10;;;12.00;71.70;;;;;;4740937;30;20064;-88
2023/06/01 02:30:45;;;;;;;8.52;3.20;;;12.00;72.00;;;;;;4741493;30;20512;-88
2023/06/01 02:33:12;;;;;;;9.32;3.88;;;12.00;72.10;;;;;;4741129;30;20048;-88
2023/06/01 02:35:41;;;;;;;10.35;3.58;;;12.00;71.90;;;;;;4740906;30;20459;-88
2023/06/01 02:38:08;;;;;;;9.38;3.88;;;12.00;72.00;;;;;;4740896;30;20044;-89
2023/06/01 02:40:35;;;;;;;7.53;3.37;;;11.90;72.00;;;;;;4740837;30;20134;-89
2023/06/01 02:43:05;;;;;;;7.95;3.35;;;12.00;72.00;;;;;;4740783;30;20060;-89
2023/06/01 02:45:32;;;;;;;9.60;3.72;;;12.00;72.00;;;;;;4740293;30;20056;-88
2023/06/01 02:48:00;;;;;;;11.25;3.65;;;12.00;72.20;;;;;;4755237;30;20052;-88
2023/06/01 02:50:27;;;;;;;9.00;3.50;;;11.90;72.20;;;;;;4740273;30;20052;-88
2023/06/01 02:52:54;;;;;;;9.93;3.70;;;11.90;72.10;;;;;;4733065;30;20724;-88
2023/06/01 02:55:21;;;;;;;11.13;4.03;;;11.90;72.00;;;;;;4740693;30;20411;-89
2023/06/01 02:58:12;;;;;;;8.88;3.90;;;11.90;72.00;;;;;;4740838;30;20098;-88
2023/06/01 03:00:50;;;;;;;7.90;3.35;;;11.80;72.00;;;;;;4754012;30;20052;-88
2023/06/01 03:03:18;;;;;;;8.15;4.03;;;11.80;72.20;;;;;;4740775;30;20052;-88
2023/06/01 03:05:47;;;;;;;10.13;3.80;;;11.80;72.30;;;;;;4740463;30;20070;-88
2023/06/01 03:08:37;;;;;;;9.43;3.65;;;11.70;72.60;;;;;;4743522;30;20056;-88
2023/06/01 03:11:08;;;;;;;9.68;3.78;;;11.70;72.50;;;;;;4739852;30;20458;-89
2023/06/01 03:13:37;;;;;;;10.27;3.90;;;11.60;72.70;;;;;;4754758;30;20048;-88
2023/06/01 03:16:04;;;;;;;9.77;3.80;;;11.60;72.80;;;;;;4740456;30;20060;-89
2023/06/01 03:18:32;;;;;;;9.57;4.10;;;11.50;73.10;;;;;;4754997;30;20067;-88
2023/06/01 03:21:03;;;;;;;7.55;3.20;;;11.50;73.20;;;;;;4754958;30;20048;-88
2023/06/01 03:23:30;;;;;;;10.13;3.70;;;11.60;73.00;;;;;;4739952;30;20419;-88
2023/06/01 03:25:57;;;;;;;8.32;3.53;;;11.60;72.90;;;;;;4739972;30;20056;-87
2023/06/01 03:28:25;;;;;;;8.35;3.33;;;11.70;73.00;;;;;;4754783;30;20543;-88
2023/06/01 03:30:52;;;;;;;8.30;3.50;;;11.70;72.80;;;;;;4754532;30;20063;-88
2023/06/01 03:33:20;;;;;;;11.38;3.88;;;11.70;73.00;;;;;;4745431;30;20079;-82
2023/06/01 03:35:49;;;;;;;12.63;3.85;;;11.70;72.90;;;;;;4738761;30;20411;-81
2023/06/01 03:38:16;;;;;;;9.05;3.28;;;11.70;72.80;;;;;;4738707;30;20056;-81
2023/06/01 03:40:43;;;;;;;9.65;4.22;;;11.70;73.10;;;;;;4736348;30;20052;-81
2023/06/01 03:43:11;;;;;;;10.57;3.07;;;11.60;72.80;;;;;;4753794;30;20052;-81
2023/06/01 03:45:38;;;;;;;11.80;3.95;;;11.60;73.00;;;;;;4736365;30;20060;-80
2023/06/01 03:48:05;;;;;;;8.77;3.72;;;11.70;73.00;;;;;;4738610;30;20044;-82
2023/06/01 03:50:32;;;;;;;12.65;3.85;;;11.80;72.80;;;;;;4735528;30;20048;-81
2023/06/01 03:53:00;;;;;;;8.55;3.65;;;11.80;72.70;;;;;;4736212;30;20142;-82
2023/06/01 03:55:29;;;;;;;9.77;3.40;;;11.80;72.70;;;;;;4729805;30;20111;-82
2023/06/01 03:58:12;;;;;;;8.80;3.53;;;11.90;72.30;;;;;;4738408;30;20084;-82
2023/06/01 04:00:41;;;;;;;9.13;4.15;;;11.90;72.50;;;;;;4740708;30;20062;-81
2023/06/01 04:03:08;;;;;;;9.77;3.70;;;11.80;72.30;;;;;;4737811;30;20052;-82
2023/06/01 04:05:36;;;;;;;9.15;3.20;;;11.80;72.20;;;;;;4738064;30;20385;-81
2023/06/01 04:08:04;;;;;;;8.83;3.57;;;11.90;72.60;;;;;;4733447;30;20051;-82
2023/06/01 04:10:31;;;;;;;7.93;3.05;;;11.90;72.40;;;;;;4738518;30;20060;-82
2023/06/01 04:12:58;;;;;;;9.38;3.45;;;11.90;72.50;;;;;;4735631;30;20045;-82
2023/06/01 04:15:28;;;;;;;10.13;3.58;;;12.00;72.00;;;;;;4734592;30;20496;-82
2023/06/01 04:17:56;;;;;;;9.10;3.78;;;12.20;71.80;;;;;;4738323;30;20052;-82
2023/06/01 04:20:23;;;;;;;9.37;3.30;;;12.40;71.60;;;;;;4744253;30;20054;-82
2023/06/01 04:22:50;;;;;;;10.00;4.07;;;12.50;71.00;;;;;;4738632;30;20051;-80
2023/06/01 04:25:18;;;;;;;8.90;3.60;;;12.60;70.90;;;;;;4745336;30;20056;-82
2023/06/01 04:27:54;;;;;;;8.43;3.60;;;12.70;70.60;;;;;;4736871;30;20060;-82
2023/06/01 04:30:24;;;;;;;8.63;3.40;;;12.90;70.50;;;;;;4752466;30;20048;-81
2023/06/01 04:32:51;;;;;;;9.93;4.20;;;13.00;70.10;;;;;;4738323;30;20523;-80
2023/06/01 04:35:20;;;;;;;9.50;3.60;;;13.00;70.10;;;;;;4752129;30;20503;-82
2023/06/01 04:37:49;;;;;;;9.05;4.10;;;13.20;70.10;;;;;;4752586;30;20117;-81
2023/06/01 04:40:16;;;;;;;9.80;3.80;;;13.30;69.90;;;;;;4737763;30;20051;-81
2023/06/01 04:42:48;;;;;;;8.95;4.13;;;13.40;69.10;;;;;;4737934;30;20079;-81
2023/06/01 04:45:18;;;;;;;11.03;3.60;;;13.60;68.60;;;;;;4729407;30;20051;-81
2023/06/01 04:47:46;;;;;;;9.18;3.95;;;13.80;68.50;;;;;;4735476;30;20059;-81
2023/06/01 04:50:20;;;;;;;9.25;3.88;;;14.00;68.00;;;;;;4737756;30;20135;-82
2023/06/01 04:52:49;;;;;;;13.20;3.75;;;14.10;67.90;;;;;;4748376;30;20059;-81
2023/06/01 04:55:16;;;;;;;8.35;3.80;;;14.30;67.70;;;;;;4737862;30;20134;-81
2023/06/01 04:57:44;;;;;;;9.83;3.80;;;14.50;66.70;;;;;;4737458;30;20567;-81
2023/06/01 05:00:13;;;;;;;8.60;3.42;;;14.60;65.70;;;;;;4737684;30;20056;-81
2023/06/01 05:02:46;;;;;;;9.90;3.83;;;14.70;66.40;;;;;;4737496;30;20044;-81
2023/06/01 05:05:14;;;;;;;6.93;3.10;;;14.80;65.10;;;;;;4737489;30;20106;-81
2023/06/01 05:07:42;;;;;;;10.00;4.00;;;15.00;65.60;;;;;;4733638;30;20059;-81
2023/06/01 05:10:12;;;;;;;7.37;3.47;;;15.10;64.40;;;;;;4734867;30;20131;-81
2023/06/01 05:12:44;;;;;;;7.90;3.88;;;15.10;64.10;;;;;;4735463;30;20053;-80
2023/06/01 05:15:13;;;;;;;9.82;3.50;;;15.30;65.00;;;;;;4751469;30;20126;-81
2023/06/01 05:17:40;;;;;;;40.42;4.40;;;15.50;64.30;;;;;;4740445;30;20499;-81
2023/06/01 05:20:12;;;;;;;11.57;3.90;;;15.60;63.60;;;;;;4738385;30;20056;-88
2023/06/01 05:22:42;;;;;;;7.67;3.27;;;15.90;63.80;;;;;;4738899;30;20124;-87
2023/06/01 05:25:10;;;;;;;10.43;4.50;;;16.00;62.90;;;;;;4738374;30;20056;-88
2023/06/01 05:27:38;;;;;;;9.40;3.67;;;16.20;62.70;;;;;;4738353;30;20459;-87
2023/06/01 05:30:06;;;;;;;9.07;3.78;;;16.50;62.70;;;;;;4752581;30;20527;-89
2023/06/01 05:32:34;;;;;;;11.63;4.35;;;16.60;61.90;;;;;;4738657;30;20057;-89
2023/06/01 05:35:14;;;;;;;14.43;4.10;;;16.70;61.60;;;;;;4738225;30;20115;-89
2023/06/01 05:37:42;;;;;;;10.93;3.83;;;16.90;62.10;;;;;;4738402;30;20148;-88
2023/06/01 05:40:13;;;;;;;9.45;3.75;;;17.00;60.90;;;;;;4752671;30;20055;-86
2023/06/01 05:42:40;;;;;;;10.05;3.53;;;17.10;61.10;;;;;;4738359;30;20454;-88
2023/06/01 05:45:09;;;;;;;10.98;3.78;;;17.30;60.50;;;;;;4752725;30;20056;-88
2023/06/01 05:47:36;;;;;;;9.00;3.70;;;17.40;59.60;;;;;;4752511;30;20561;-87
2023/06/01 05:50:04;;;;;;;8.88;3.75;;;17.50;59.70;;;;;;4738238;30;20053;-89
2023/06/01 05:53:03;;;;;;;9.63;3.50;;;17.60;59.70;;;;;;4764957;30;20048;-95
2023/06/01 06:00:58;;;;;;;15.32;7.25;;;18.10;60.30;;;;;;4719202;30;20057;-94
2023/06/01 06:03:25;;;;;;;13.10;5.30;;;18.40;58.30;;;;;;4703010;30;20049;-91
2023/06/01 06:05:53;;;;;;;11.75;4.85;;;18.50;57.60;;;;;;4690014;30;20122;-91
2023/06/01 06:08:20;;;;;;;9.15;4.15;;;18.60;57.90;;;;;;4756514;30;20048;-91
2023/06/01 06:10:48;;;;;;;14.45;4.80;;;18.70;57.70;;;;;;4756407;30;20044;-92
2023/06/01 06:13:16;;;;;;;14.70;5.53;;;18.80;57.20;;;;;;4756071;30;20060;-91
2023/06/01 06:15:44;;;;;;;17.50;5.97;;;19.00;56.30;;;;;;4756135;30;20049;-91
2023/06/01 06:18:11;;;;;;;23.13;8.25;;;19.10;57.00;;;;;;4756370;30;20064;-91
2023/06/01 06:20:38;;;;;;;314.73;21.63;;;19.30;57.30;;;;;;4756017;30;20448;-92
2023/06/01 06:23:06;;;;;;;51.85;7.45;;;19.50;56.40;;;;;;4741629;30;20397;-91
2023/06/01 06:25:36;;;;;;;19.63;5.93;;;19.60;57.00;;;;;;4756566;30;20514;-91
2023/06/01 06:28:03;;;;;;;9.87;4.27;;;19.70;55.00;;;;;;4756268;30;20052;-90
2023/06/01 06:30:31;;;;;;;18.05;5.80;;;19.80;54.70;;;;;;4756079;30;20114;-89
2023/06/01 06:32:58;;;;;;;24.63;6.82;;;20.00;55.20;;;;;;4741042;30;20055;-90
2023/06/01 06:35:26;;;;;;;21.27;6.25;;;20.10;54.60;;;;;;4755986;30;20142;-90
2023/06/01 06:37:53;;;;;;;19.55;7.25;;;20.10;55.70;;;;;;4755866;30;20511;-89
2023/06/01 06:40:21;;;;;;;27.17;8.73;;;20.30;53.90;;;;;;4741483;30;20054;-89
2023/06/01 06:42:51;;;;;;;22.98;8.65;;;20.40;53.20;;;;;;4741174;30;20052;-90
2023/06/01 06:45:19;;;;;;;23.52;8.13;;;20.60;53.60;;;;;;4755993;30;20082;-91
2023/06/01 06:47:46;;;;;;;27.80;7.82;;;20.80;53.50;;;;;;4756577;30;20151;-91
2023/06/01 06:50:14;;;;;;;26.20;8.95;;;20.90;52.30;;;;;;4741344;30;20119;-90
2023/06/01 06:52:41;;;;;;;28.87;8.70;;;21.00;51.60;;;;;;4741135;30;20059;-90
2023/06/01 06:55:09;;;;;;;29.02;8.98;;;21.10;51.50;;;;;;4755656;30;20458;-90
2023/06/01 06:57:39;;;;;;;23.52;8.32;;;21.10;51.40;;;;;;4755952;30;20056;-90
2023/06/01 07:00:08;;;;;;;21.02;7.90;;;21.20;50.60;;;;;;4740809;30;20087;-91
2023/06/01 07:02:36;;;;;;;21.83;7.75;;;21.40;50.10;;;;;;4740672;30;20472;-90
2023/06/01 07:05:05;;;;;;;24.63;8.20;;;21.40;49.00;;;;;;4740740;30;20052;-90
2023/06/01 07:07:33;;;;;;;19.60;6.40;;;21.50;49.70;;;;;;4740889;30;20084;-90
2023/06/01 07:10:00;;;;;;;20.80;6.75;;;21.60;51.10;;;;;;4755322;30;20056;-91
2023/06/01 07:12:30;;;;;;;19.67;6.25;;;21.70;50.90;;;;;;4754790;30;20098;-90
2023/06/01 07:14:57;;;;;;;21.48;6.50;;;21.80;51.20;;;;;;4740611;30;20131;-91
2023/06/01 07:17:24;;;;;;;18.30;5.90;;;21.90;48.30;;;;;;4740784;30;20507;-92
2023/06/01 07:19:54;;;;;;;16.60;5.90;;;22.00;48.90;;;;;;4755310;30;20146;-91
2023/06/01 07:22:21;;;;;;;18.05;5.55;;;22.10;48.90;;;;;;4740607;30;20059;-91
2023/06/01 07:24:51;;;;;;;10.95;4.63;;;22.30;48.60;;;;;;4754898;30;20056;-90
2023/06/01 07:27:19;;;;;;;19.20;5.13;;;22.40;48.30;;;;;;4740872;30;20063;-91
2023/06/01 07:29:46;;;;;;;11.60;4.33;;;22.30;46.10;;;;;;4740481;30;20465;-91
2023/06/01 07:32:14;;;;;;;17.63;5.40;;;22.40;46.00;;;;;;4755763;30;20062;-90
2023/06/01 07:34:41;;;;;;;16.33;5.47;;;22.50;47.10;;;;;;4740625;30;20048;-91
2023/06/01 07:37:13;;;;;;;13.23;5.35;;;22.50;48.20;;;;;;4740569;30;20415;-91
2023/06/01 07:39:44;;;;;;;13.23;4.53;;;22.70;48.50;;;;;;4754355;30;20495;-91
2023/06/01 07:42:11;;;;;;;12.77;4.50;;;22.90;49.10;;;;;;4740268;30;20500;-91
2023/06/01 07:44:39;;;;;;;11.95;3.80;;;22.90;47.40;;;;;;4740103;30;20052;-91
2023/06/01 07:47:06;;;;;;;11.57;3.53;;;22.90;44.70;;;;;;4740151;30;20052;-91
2023/06/01 07:49:36;;;;;;;8.40;3.00;;;22.90;44.90;;;;;;4754854;30;20551;-90
2023/06/01 07:52:05;;;;;;;30.23;4.68;;;22.90;44.70;;;;;;4739833;30;20086;-91
2023/06/01 07:54:34;;;;;;;10.00;3.60;;;23.10;44.70;;;;;;4754613;30;20094;-92
2023/06/01 07:57:05;;;;;;;7.82;3.05;;;23.30;45.90;;;;;;4754759;30;20420;-90
2023/06/01 07:59:32;;;;;;;6.07;2.60;;;23.30;44.50;;;;;;4739951;30;20056;-90
2023/06/01 08:02:00;;;;;;;6.90;2.30;;;23.20;40.20;;;;;;4754323;30;20147;-90
2023/06/01 08:04:33;;;;;;;7.57;2.47;;;23.10;39.90;;;;;;4755598;30;20060;-90
2023/06/01 08:07:19;;;;;;;7.63;2.47;;;23.30;38.40;;;;;;4755578;30;20533;-87
2023/06/01 08:09:48;;;;;;;8.85;2.50;;;23.40;39.20;;;;;;4754092;30;20052;-90
2023/06/01 08:12:15;;;;;;;7.32;2.53;;;23.50;38.20;;;;;;4739684;30;20052;-91
2023/06/01 08:14:44;;;;;;;5.85;2.25;;;23.50;37.30;;;;;;4753491;30;20052;-91
2023/06/01 08:17:13;;;;;;;11.20;2.42;;;23.50;36.70;;;;;;4739459;30;20056;-91
2023/06/01 08:19:43;;;;;;;6.77;2.50;;;23.40;37.50;;;;;;4754231;30;20048;-91
2023/06/01 08:22:11;;;;;;;6.32;2.10;;;23.40;37.10;;;;;;4753974;30;20066;-90
2023/06/01 08:24:39;;;;;;;6.45;2.58;;;23.60;38.60;;;;;;4754058;30;20056;-91
2023/06/01 08:27:28;;;;;;;8.48;2.80;;;23.80;38.90;;;;;;4754249;30;20056;-92
2023/06/01 08:29:55;;;;;;;8.38;2.95;;;23.70;38.10;;;;;;4739915;30;20052;-91
2023/06/01 08:32:23;;;;;;;7.73;2.87;;;23.80;37.90;;;;;;4739021;30;20048;-90
2023/06/01 08:34:50;;;;;;;8.07;3.70;;;23.90;39.00;;;;;;4739521;30;20048;-91
2023/06/01 08:37:18;;;;;;;6.97;2.83;;;24.00;38.10;;;;;;4739100;30;20052;-92
2023/06/01 08:39:46;;;;;;;8.82;2.58;;;24.10;36.30;;;;;;4739468;30;20415;-91
2023/06/01 08:42:31;;;;;;;8.15;2.75;;;24.10;37.10;;;;;;4739527;30;20143;-91
2023/06/01 08:44:59;;;;;;;9.37;3.20;;;24.20;40.00;;;;;;4753890;30;20060;-91
2023/06/01 08:47:28;;;;;;;7.85;2.72;;;24.10;39.40;;;;;;4754167;30;20527;-89
2023/06/01 08:50:01;;;;;;;9.05;2.88;;;24.10;39.70;;;;;;4753899;30;20086;-90
2023/06/01 08:52:31;;;;;;;8.30;3.30;;;23.90;38.50;;;;;;4739195;30;20059;-90
2023/06/01 08:55:03;;;;;;;8.45;3.08;;;23.90;38.10;;;;;;4754044;30;20052;-90
2023/06/01 08:57:31;;;;;;;8.77;2.80;;;24.00;40.00;;;;;;4753938;30;20503;-91
2023/06/01 08:59:59;;;;;;;13.05;2.90;;;24.10;39.60;;;;;;4753853;30;20056;-91
2023/06/01 09:02:27;;;;;;;7.90;2.67;;;24.20;39.70;;;;;;4753623;30;20066;-89
2023/06/01 09:04:54;;;;;;;7.07;2.50;;;24.30;40.00;;;;;;4739000;30;20427;-90
2023/06/01 09:07:23;;;;;;;8.50;2.75;;;24.60;39.40;;;;;;4753590;30;20056;-90
2023/06/01 09:09:55;;;;;;;7.17;2.67;;;24.50;38.40;;;;;;4738697;30;20086;-90
2023/06/01 09:12:32;;;;;;;7.03;2.45;;;24.50;38.70;;;;;;4753441;30;20078;-90
2023/06/01 09:15:18;;;;;;;6.60;2.70;;;24.60;39.10;;;;;;4754250;30;20088;-91
2023/06/01 09:17:51;;;;;;;7.70;2.83;;;24.60;40.20;;;;;;4738606;30;20052;-91
2023/06/01 09:20:31;;;;;;;9.00;2.20;;;24.60;40.00;;;;;;4753612;30;20048;-92
2023/06/01 09:23:03;;;;;;;7.10;2.80;;;24.60;39.60;;;;;;4753482;30;20068;-91
2023/06/01 09:25:32;;;;;;;144.35;10.25;;;24.60;41.20;;;;;;4753273;30;20458;-91
2023/06/01 09:28:06;;;;;;;13.02;2.90;;;24.70;41.60;;;;;;4753206;30;20052;-91
2023/06/01 09:30:45;;;;;;;6.32;2.20;;;24.80;39.60;;;;;;4753213;30;20143;-92
2023/06/01 09:33:20;;;;;;;7.65;2.50;;;25.00;39.20;;;;;;4738373;30;20056;-92
2023/06/01 09:35:49;;;;;;;7.07;2.60;;;24.90;38.40;;;;;;4738659;30;20074;-91
2023/06/01 09:38:25;;;;;;;7.60;2.85;;;24.80;38.20;;;;;;4738665;30;20048;-89
2023/06/01 09:40:59;;;;;;;8.02;2.55;;;24.80;38.20;;;;;;4732591;30;20052;-90
2023/06/01 09:43:27;;;;;;;8.15;2.58;;;24.90;40.10;;;;;;4738140;30;20139;-90
2023/06/01 09:46:05;;;;;;;8.60;2.88;;;25.00;40.00;;;;;;4738411;30;20643;-92
2023/06/01 09:48:32;;;;;;;6.07;2.57;;;25.00;38.00;;;;;;4738357;30;20052;-91
2023/06/01 09:50:59;;;;;;;8.93;2.58;;;25.10;39.50;;;;;;4738100;30;20151;-92
2023/06/01 09:53:42;;;;;;;6.22;2.40;;;25.20;37.70;;;;;;4738468;30;20048;-91
2023/06/01 09:56:10;;;;;;;7.35;2.78;;;25.30;38.10;;;;;;4738673;30;20101;-91
2023/06/01 09:58:40;;;;;;;7.22;2.60;;;25.30;37.60;;;;;;4738471;30;20113;-89
2023/06/01 10:01:08;;;;;;;13.47;3.33;;;25.40;38.00;;;;;;4738262;30;20234;-89
2023/06/01 10:03:42;;;;;;;8.18;2.63;;;25.50;38.80;;;;;;4739151;30;20084;-89
2023/06/01 10:06:15;;;;;;;12.10;3.08;;;25.40;38.20;;;;;;4738680;30;20102;-92
2023/06/01 10:08:43;;;;;;;9.63;3.10;;;25.40;38.50;;;;;;4738349;30;20068;-91
2023/06/01 10:11:10;;;;;;;10.27;2.90;;;25.40;38.00;;;;;;4738491;30;20509;-88
2023/06/01 10:13:37;;;;;;;8.00;2.87;;;25.30;39.20;;;;;;4739896;30;20056;-91
2023/06/01 10:16:06;;;;;;;7.63;3.05;;;25.30;37.50;;;;;;4737023;30;20483;-91
2023/06/01 10:18:34;;;;;;;9.32;2.53;;;25.60;38.20;;;;;;4735089;30;20056;-92
2023/06/01 10:21:02;;;;;;;10.13;2.35;;;25.60;39.30;;;;;;4735458;30;20436;-92
2023/06/01 10:23:30;;;;;;;13.90;3.08;;;25.70;38.50;;;;;;4737999;30;20056;-91
2023/06/01 10:26:10;;;;;;;7.70;2.60;;;25.90;37.40;;;;;;4738277;30;20076;-93
2023/06/01 10:28:39;;;;;;;7.50;2.75;;;26.00;37.70;;;;;;4738223;30;20069;-92
2023/06/01 10:31:35;;;;;;;8.45;2.60;;;26.00;37.30;;;;;;4738427;30;20507;-91
2023/06/01 10:34:07;;;;;;;6.10;2.85;;;26.10;37.50;;;;;;4738155;30;20423;-89
2023/06/01 10:36:57;;;;;;;8.05;2.58;;;26.10;38.30;;;;;;4723627;30;20056;-89
2023/06/01 10:39:31;;;;;;;7.87;2.87;;;26.10;36.80;;;;;;4755629;30;20092;-94
2023/06/01 10:42:19;;;;;;;8.88;2.75;;;26.10;37.90;;;;;;4741559;30;20048;-91
2023/06/01 10:44:48;;;;;;;9.48;2.92;;;26.10;39.00;;;;;;4740939;30;20083;-90
2023/06/01 10:47:18;;;;;;;7.85;3.40;;;26.20;39.80;;;;;;4755814;30;20499;-90
2023/06/01 10:49:51;;;;;;;8.80;3.10;;;26.20;38.90;;;;;;4741201;30;20052;-91
2023/06/01 10:52:29;;;;;;;8.83;2.60;;;26.40;39.50;;;;;;4741503;30;20048;-91
2023/06/01 10:55:16;;;;;;;9.00;2.92;;;26.40;38.40;;;;;;4741300;30;20050;-91
2023/06/01 10:57:44;;;;;;;7.85;3.10;;;26.40;37.90;;;;;;4755521;30;20048;-92
2023/06/01 11:00:28;;;;;;;8.25;3.00;;;26.60;37.50;;;;;;4741269;30;20101;-91
2023/06/01 11:02:59;;;;;;;8.90;2.70;;;26.50;37.10;;;;;;4755660;30;20055;-90
2023/06/01 11:05:52;;;;;;;8.33;3.10;;;26.30;36.10;;;;;;4755579;30;20074;-90
2023/06/01 11:08:22;;;;;;;6.80;2.88;;;26.40;37.70;;;;;;4755613;30;20060;-90
2023/06/01 11:10:53;;;;;;;6.50;3.17;;;26.40;37.80;;;;;;4740826;30;20541;-91
2023/06/01 11:13:32;;;;;;;21.48;3.47;;;26.50;38.90;;;;;;4740582;30;20083;-91
2023/06/01 11:16:42;;;;;;;9.82;3.17;;;26.60;38.10;;;;;;4755300;30;20060;-90
2023/06/01 11:19:03;;;;;;;9.13;3.60;;;26.80;37.80;;;;;;4739058;30;20521;-93
2023/06/01 11:21:33;;;;;;;8.50;3.22;;;26.70;38.30;;;;;;4740519;30;20068;-92
2023/06/01 11:24:05;;;;;;;8.52;3.30;;;26.60;37.90;;;;;;4740392;30;20059;-91
2023/06/01 11:26:36;;;;;;;9.18;3.20;;;26.80;37.50;;;;;;4755603;30;20062;-92
2023/06/01 11:29:12;;;;;;;8.98;3.17;;;26.80;37.60;;;;;;4755674;30;20159;-91
2023/06/01 11:31:55;;;;;;;7.93;3.13;;;26.60;37.20;;;;;;4755420;30;20052;-92
2023/06/01 11:34:37;;;;;;;6.43;2.95;;;26.80;37.10;;;;;;4740344;30;20056;-91
2023/06/01 11:37:06;;;;;;;16.42;3.88;;;26.90;36.70;;;;;;4755423;30;20044;-91
2023/06/01 11:39:34;;;;;;;9.48;3.67;;;26.90;39.00;;;;;;4755137;30;20060;-91
2023/06/01 11:42:06;;;;;;;8.70;3.30;;;26.80;37.50;;;;;;4754708;30;20424;-92
2023/06/01 11:44:35;;;;;;;7.10;3.33;;;26.80;37.30;;;;;;4739833;30;20056;-91
2023/06/01 11:47:08;;;;;;;7.28;2.97;;;26.70;38.10;;;;;;4755099;30;20566;-92
2023/06/01 11:49:47;;;;;;;8.25;3.05;;;26.80;40.20;;;;;;4754408;30;20519;-92
2023/06/01 11:52:19;;;;;;;8.73;3.03;;;27.10;39.20;;;;;;4740138;30;20159;-92
2023/06/01 11:54:51;;;;;;;7.43;3.35;;;27.20;36.70;;;;;;4755068;30;20054;-91
2023/06/01 11:57:19;;;;;;;7.13;2.43;;;27.10;36.50;;;;;;4739723;30;20148;-94
2023/06/01 11:59:51;;;;;;;7.32;2.58;;;27.00;36.50;;;;;;4740158;30;20051;-90
2023/06/01 12:02:20;;;;;;;7.70;2.80;;;26.90;37.50;;;;;;4739942;30;20045;-91
2023/06/01 12:04:58;;;;;;;7.32;2.60;;;26.90;36.30;;;;;;4739583;30;20060;-92
2023/06/01 12:07:26;;;;;;;8.98;3.05;;;26.90;37.50;;;;;;4754362;30;20056;-92
2023/06/01 12:09:56;;;;;;;8.60;2.87;;;26.90;37.30;;;;;;4754305;30;20111;-91
2023/06/01 12:12:29;;;;;;;6.88;2.90;;;27.00;36.00;;;;;;4754451;30;20511;-92
2023/06/01 12:14:56;;;;;;;7.10;2.60;;;26.80;37.00;;;;;;4755896;30;20056;-90
2023/06/01 12:17:49;;;;;;;9.15;2.58;;;26.90;37.30;;;;;;4740593;30;20060;-92
2023/06/01 12:20:29;;;;;;;8.38;3.33;;;27.20;37.70;;;;;;4741543;30;20052;-90
2023/06/01 12:23:05;;;;;;;7.47;2.63;;;27.40;36.10;;;;;;4754085;30;20577;-91
2023/06/01 12:25:33;;;;;;;13.52;3.05;;;27.30;36.20;;;;;;4739962;30;20113;-94
2023/06/01 12:28:11;;;;;;;7.43;3.00;;;27.20;35.90;;;;;;4754426;30;20056;-94
2023/06/01 12:30:41;;;;;;;8.82;2.42;;;27.10;35.30;;;;;;4739399;30;20542;-92
2023/06/01 12:33:31;;;;;;;6.75;2.50;;;27.20;35.60;;;;;;4753243;30;20052;-95
2023/06/01 12:35:58;;;;;;;7.93;2.40;;;27.30;34.40;;;;;;4754825;30;20064;-93
2023/06/01 12:38:34;;;;;;;6.60;2.72;;;27.20;33.50;;;;;;4739319;30;20393;-91
2023/06/01 12:41:11;;;;;;;6.90;2.35;;;27.30;34.80;;;;;;4739228;30;20052;-91
2023/06/01 12:43:44;;;;;;;6.95;2.42;;;27.40;32.80;;;;;;4753835;30;20052;-90
2023/06/01 12:46:26;;;;;;;9.55;2.83;;;27.30;33.90;;;;;;4754222;30;20056;-92
2023/06/01 12:49:19;;;;;;;5.63;2.37;;;27.40;33.60;;;;;;4739554;30;20052;-92
2023/06/01 12:51:59;;;;;;;7.22;2.88;;;27.50;32.40;;;;;;4754672;30;20530;-93
2023/06/01 12:55:08;;;;;;;5.97;2.40;;;27.40;32.90;;;;;;4733520;30;20056;-94
2023/06/01 12:58:06;;;;;;;7.22;2.67;;;27.60;32.60;;;;;;4738873;30;20056;-94
2023/06/01 13:01:01;;;;;;;6.75;2.63;;;27.90;34.00;;;;;;4735158;30;20049;-94
2023/06/01 13:03:34;;;;;;;6.80;2.50;;;27.90;32.20;;;;;;4739473;30;20063;-93
2023/06/01 13:06:11;;;;;;;5.57;2.58;;;27.90;32.80;;;;;;4740985;30;20060;-92
2023/06/01 13:08:45;;;;;;;6.05;2.90;;;28.00;33.30;;;;;;4743498;30;20094;-94
2023/06/01 13:11:51;;;;;;;6.53;2.63;;;27.90;31.70;;;;;;4724059;30;20060;-93